Alburg Center, VT

1:50 PM EST on December 10, 2016 (GMT -0500)
VEC South Alburg Substation | | Change Station

Elev 121 ft 44.92 °N, 73.28 °W | Updated 1 minute ago

Overcast
Overcast
22.1 °F
Feels Like 16 °F
N
4.8
Wind Variable Wind from NNE
Gusts 13.7 mph

Today
High -- | Low -- °F
--% Chance of Precip.
Yesterday
High -- | Low -- °F
Precip. -- in
Pressure 30.30 in
Visibility 10.0 miles
Clouds Scattered Clouds 3600 ft
Mostly Cloudy 4500 ft
Overcast 5500 ft
Windchill 16 °F
Dew Point 12 °F
Humidity 64%
Rainfall 0.00 in
Snow Depth Not available.
7:20 AM 4:11 PM
Waxing Gibbous, 85% visible
METAR KFSO 101835Z AUTO 32005KT 10SM SCT036 BKN045 OVC055 M05/M15 A3030 RMK AO2 T10541147
Pressure 30.30 in
Visibility 10.0 miles
Clouds Scattered Clouds 3600 ft
Mostly Cloudy 4500 ft
Overcast 5500 ft
Windchill 16 °F
Dew Point 12 °F
Humidity 64%
Rainfall 0.00 in
Snow Depth Not available.
7:20 AM 4:11 PM
Waxing Gibbous, 85% visible
METAR KFSO 101835Z AUTO 32005KT 10SM SCT036 BKN045 OVC055 M05/M15 A3030 RMK AO2 T10541147

10-Day Weather Forecast

Almanac

Astronomy

Dec. 10, 2016 Rise Set
Actual Time
Civil Twilight
Nautical Twilight
Astronomical Twilight
Moon
Length of Visible Light
Length of Day
Tomorrow will be .
, % of the Moon is Illuminated

Today's Extremes

State Highs State Lows

Community

WunderPhotos

Upload Photos

1,956,620 photos uploaded!

WunderBlog® & News

Nearby

Air Quality

  Air Quality AQ Index Pollutant
Not available.

Snow Depth

Station Depth Elevation

Earthquake Activity

City Distance Mag. Time & Date
Minimum magnitude displayed is 2.5.

Coastal Water Temperatures

Place Temperature

Stations

Nearby Weather Stations

Station Location Temp. Windchill Dew Point Humidity Wind Precip. Elev Updated Type
                   

Watches & Warnings

There are currently no watches in effect.